createdAt,value
2018-04-11T00:01:01.715Z,6.35
2018-04-11T00:05:57.916Z,5.80
2018-04-11T00:15:46.871Z,6.30
2018-04-11T00:18:15.196Z,6.47
2018-04-11T00:20:42.733Z,6.60
2018-04-11T00:25:38.184Z,6.60
2018-04-11T00:28:06.499Z,6.97
2018-04-11T00:30:34.056Z,7.10
2018-04-11T00:33:01.638Z,7.15
2018-04-11T00:35:29.253Z,6.10
2018-04-11T00:37:56.827Z,6.55
2018-04-11T00:40:24.424Z,7.57
2018-04-11T00:42:51.998Z,8.32
2018-04-11T00:45:19.548Z,6.80
2018-04-11T00:47:47.099Z,7.45
2018-04-11T00:50:14.642Z,6.60
2018-04-11T00:53:02.939Z,8.10
2018-04-11T00:55:30.554Z,8.03
2018-04-11T00:57:58.119Z,8.38
2018-04-11T01:00:25.685Z,9.38
2018-04-11T01:02:53.259Z,7.70
2018-04-11T01:05:20.847Z,10.47
2018-04-11T01:07:48.420Z,8.15
2018-04-11T01:10:16.015Z,9.20
2018-04-11T01:12:44.336Z,9.10
2018-04-11T01:15:11.912Z,7.80
2018-04-11T01:17:39.497Z,9.45
2018-04-11T01:20:07.052Z,9.45
2018-04-11T01:22:34.600Z,9.00
2018-04-11T01:25:02.190Z,8.52
2018-04-11T01:27:29.737Z,9.45
2018-04-11T01:29:57.309Z,9.75
2018-04-11T01:32:24.891Z,9.60
2018-04-11T01:34:52.472Z,9.52
2018-04-11T01:37:20.790Z,9.15
2018-04-11T01:39:48.359Z,10.35
2018-04-11T01:42:15.934Z,9.07
2018-04-11T01:44:44.266Z,9.77
2018-04-11T01:47:12.579Z,10.47
2018-04-11T01:49:40.127Z,10.50
2018-04-11T01:52:07.674Z,9.60
2018-04-11T01:54:35.988Z,9.10
2018-04-11T01:57:03.546Z,8.88
2018-04-11T01:59:31.096Z,9.30
2018-04-11T02:01:58.667Z,8.87
2018-04-11T02:04:26.261Z,10.02
2018-04-11T02:06:53.835Z,9.18
2018-04-11T02:09:21.412Z,10.27
2018-04-11T02:11:49.067Z,9.75
2018-04-11T02:14:16.663Z,10.88
2018-04-11T02:16:44.209Z,10.52
2018-04-11T02:19:11.778Z,10.68
2018-04-11T02:21:39.352Z,9.32
2018-04-11T02:24:06.934Z,10.70
2018-04-11T02:26:35.256Z,10.00
2018-04-11T02:29:02.874Z,10.70
2018-04-11T02:31:31.226Z,9.95
2018-04-11T02:33:58.787Z,9.32
2018-04-11T02:36:26.356Z,10.50
2018-04-11T02:38:53.931Z,10.15
2018-04-11T02:41:21.503Z,10.00
2018-04-11T02:43:49.815Z,9.30
2018-04-11T02:46:17.369Z,9.00
2018-04-11T02:48:44.947Z,9.23
2018-04-11T02:51:12.520Z,9.25
2018-04-11T02:53:40.115Z,10.43
2018-04-11T02:56:07.672Z,9.52
2018-04-11T02:58:35.986Z,9.77
2018-04-11T03:01:03.551Z,10.45
2018-04-11T03:03:31.858Z,10.05
2018-04-11T03:05:59.453Z,9.55
2018-04-11T03:08:27.022Z,9.45
2018-04-11T03:10:54.584Z,10.02
2018-04-11T03:13:22.150Z,8.85
2018-04-11T03:15:49.719Z,10.40
2018-04-11T03:18:17.287Z,8.80
2018-04-11T03:20:44.859Z,9.18
2018-04-11T03:23:12.451Z,9.25
2018-04-11T03:25:40.754Z,9.50
2018-04-11T03:28:08.331Z,10.13
2018-04-11T03:30:35.915Z,10.00
2018-04-11T03:33:03.500Z,8.60
2018-04-11T03:35:31.051Z,9.05
2018-04-11T03:37:58.626Z,10.25
2018-04-11T03:40:26.235Z,8.80
2018-04-11T03:42:54.560Z,10.00
2018-04-11T03:45:22.145Z,9.30
2018-04-11T03:47:49.698Z,9.02
2018-04-11T03:50:18.036Z,9.90
2018-04-11T03:52:45.588Z,9.50
2018-04-11T03:55:13.904Z,9.68
2018-04-11T03:57:41.443Z,8.50
2018-04-11T04:00:09.046Z,9.55
2018-04-11T04:02:36.592Z,10.30
2018-04-11T04:05:04.172Z,10.05
2018-04-11T04:07:31.748Z,9.55
2018-04-11T04:09:59.329Z,10.90
2018-04-11T04:12:26.887Z,8.70
2018-04-11T04:15:06.127Z,10.95
2018-04-11T04:17:45.464Z,9.98
2018-04-11T04:20:34.664Z,11.02
2018-04-11T04:23:02.209Z,10.80
2018-04-11T04:25:29.848Z,10.32
2018-04-11T04:27:57.409Z,10.30
2018-04-11T04:30:24.983Z,9.77
2018-04-11T04:32:53.327Z,9.65
2018-04-11T04:35:20.875Z,10.50
2018-04-11T04:37:48.443Z,10.60
2018-04-11T04:40:16.033Z,10.50
2018-04-11T04:42:43.577Z,11.35
2018-04-11T04:45:11.155Z,10.90
2018-04-11T04:47:38.703Z,11.25
2018-04-11T04:50:06.291Z,11.43
2018-04-11T04:52:33.847Z,10.43
2018-04-11T04:55:01.387Z,11.35
2018-04-11T04:57:28.946Z,12.68
2018-04-11T04:59:56.538Z,12.68
2018-04-11T05:02:24.115Z,12.85
2018-04-11T05:04:51.693Z,14.35
2018-04-11T05:07:19.252Z,13.05
2018-04-11T05:09:46.832Z,11.37
2018-04-11T05:12:15.178Z,13.00
2018-04-11T05:14:42.761Z,15.32
2018-04-11T05:17:10.319Z,15.10
2018-04-11T05:19:37.980Z,14.50
2018-04-11T05:22:05.563Z,13.60
2018-04-11T05:24:33.163Z,15.05
2018-04-11T05:27:00.730Z,14.50
2018-04-11T05:29:28.312Z,16.55
2018-04-11T05:31:55.882Z,16.02
2018-04-11T05:34:23.456Z,14.60
2018-04-11T05:36:50.997Z,14.82
2018-04-11T05:39:18.572Z,14.77
2018-04-11T05:41:46.186Z,13.68
2018-04-11T05:44:14.517Z,14.77
2018-04-11T05:46:42.101Z,14.25
2018-04-11T05:49:09.651Z,14.52
2018-04-11T05:51:37.194Z,14.27
2018-04-11T05:54:04.743Z,16.33
2018-04-11T05:56:32.319Z,14.98
2018-04-11T05:58:59.871Z,14.52
2018-04-11T06:01:28.174Z,15.05
2018-04-11T06:03:55.722Z,14.32
2018-04-11T06:06:23.291Z,16.17
2018-04-11T06:08:50.856Z,15.50
2018-04-11T06:11:18.398Z,15.02
2018-04-11T06:13:46.739Z,16.00
2018-04-11T06:16:14.305Z,16.55
2018-04-11T06:18:41.867Z,17.05
2018-04-11T06:21:10.213Z,18.35
2018-04-11T06:23:37.779Z,16.60
2018-04-11T06:26:05.363Z,17.45
2018-04-11T06:28:32.919Z,16.85
2018-04-11T06:31:00.463Z,16.10
2018-04-11T06:33:28.016Z,16.87
2018-04-11T06:35:56.322Z,16.20
2018-04-11T06:38:23.889Z,16.48
2018-04-11T06:40:51.435Z,16.25
2018-04-11T06:43:18.998Z,14.80
2018-04-11T06:45:46.556Z,14.52
2018-04-11T06:48:14.870Z,14.20
2018-04-11T06:50:42.448Z,15.10
2018-04-11T06:53:10.005Z,15.88
2018-04-11T06:55:37.600Z,14.00
2018-04-11T06:58:05.149Z,14.10
2018-04-11T07:00:32.759Z,15.25
2018-04-11T07:03:00.347Z,15.73
2018-04-11T07:05:27.903Z,16.98
2018-04-11T07:07:55.480Z,16.45
2018-04-11T07:10:23.054Z,15.13
2018-04-11T07:12:50.613Z,16.17
2018-04-11T07:15:18.183Z,15.05
2018-04-11T07:17:45.799Z,16.02
2018-04-11T07:20:14.166Z,15.05
2018-04-11T07:22:41.720Z,16.02
2018-04-11T07:25:09.284Z,15.60
2018-04-11T07:59:31.701Z,11.35
2018-04-11T08:19:10.774Z,6.53
2018-04-11T08:21:38.350Z,6.97
2018-04-11T08:24:05.405Z,7.00
2018-04-11T08:26:32.967Z,6.15
2018-04-11T08:29:00.540Z,6.10
2018-04-11T08:31:28.104Z,6.10
2018-04-11T08:33:56.431Z,7.12
2018-04-11T08:36:23.973Z,6.93
2018-04-11T08:38:52.330Z,6.20
2018-04-11T08:41:19.882Z,5.90
2018-04-11T08:43:47.428Z,6.57
2018-04-11T08:46:15.005Z,6.07
2018-04-11T08:48:42.583Z,5.68
2018-04-11T08:51:10.130Z,6.00
2018-04-11T08:53:37.763Z,5.95
2018-04-11T10:14:40.960Z,5.80
2018-04-11T10:17:08.511Z,5.70
2018-04-11T10:19:36.060Z,6.28
2018-04-11T10:22:03.618Z,4.93
2018-04-11T10:24:31.255Z,5.72
2018-04-11T10:26:59.601Z,6.18
2018-04-11T10:29:27.164Z,7.47
2018-04-11T10:31:55.522Z,7.20
2018-04-11T10:34:23.083Z,7.18
2018-04-11T10:36:50.636Z,7.53
2018-04-11T10:39:18.189Z,7.43
2018-04-11T10:41:46.572Z,7.15
2018-04-11T10:44:14.891Z,8.50
2018-04-11T10:46:42.438Z,11.68
2018-04-11T10:49:10.018Z,12.02
2018-04-11T10:51:37.577Z,11.00
2018-04-11T10:54:05.148Z,11.25
2018-04-11T10:56:32.731Z,11.40
2018-04-11T10:59:00.273Z,11.23
2018-04-11T11:01:27.900Z,11.50
2018-04-11T11:03:56.243Z,11.38
2018-04-11T11:06:23.819Z,11.90
2018-04-11T11:08:51.405Z,13.77
2018-04-11T11:11:19.738Z,10.90
2018-04-11T11:13:47.368Z,10.98
2018-04-11T11:16:14.961Z,12.13
2018-04-11T11:18:42.515Z,12.70
2018-04-11T11:21:10.112Z,11.27
2018-04-11T11:23:37.725Z,10.27
2018-04-11T11:26:06.105Z,10.93
2018-04-11T11:28:33.703Z,10.35
2018-04-11T11:31:01.260Z,10.15
2018-04-11T11:33:28.857Z,8.88
2018-04-11T11:35:56.457Z,8.05
2018-04-11T11:38:24.774Z,9.27
2018-04-11T11:40:52.387Z,7.95
2018-04-11T11:43:19.944Z,7.07
2018-04-11T11:45:47.502Z,7.53
2018-04-11T11:48:15.129Z,7.68
2018-04-11T11:50:42.666Z,6.10
2018-04-11T11:53:11.061Z,7.35
2018-04-11T11:55:38.619Z,7.50
2018-04-11T11:58:06.947Z,7.60
2018-04-11T12:00:35.273Z,7.35
2018-04-11T12:03:03.612Z,8.50
2018-04-11T12:05:31.175Z,7.60
2018-04-11T12:07:58.723Z,8.38
2018-04-11T12:10:26.293Z,7.28
2018-04-11T12:12:53.938Z,8.35
2018-04-11T12:15:21.507Z,8.25
2018-04-11T12:17:49.083Z,7.62
2018-04-11T12:20:16.651Z,7.55
2018-04-11T12:22:44.198Z,7.32
2018-04-11T12:25:11.777Z,7.22
2018-04-11T12:27:39.372Z,8.55
2018-04-11T12:30:06.947Z,8.20
2018-04-11T12:32:34.578Z,8.48
2018-04-11T12:35:02.159Z,7.87
2018-04-11T12:37:29.754Z,7.55
2018-04-11T12:39:58.098Z,9.23
2018-04-11T12:42:25.666Z,8.32
2018-04-11T12:44:54.010Z,8.38
2018-04-11T12:47:21.590Z,9.75
2018-04-11T12:49:49.167Z,8.02
2018-04-11T12:52:16.753Z,8.95
2018-04-11T12:54:44.372Z,8.90
2018-04-11T12:57:12.006Z,8.45
2018-04-11T12:59:40.316Z,8.13
2018-04-11T13:02:07.936Z,8.75
2018-04-11T13:04:35.487Z,7.55
2018-04-11T13:07:03.081Z,7.22
2018-04-11T13:09:31.398Z,7.90
2018-04-11T13:11:58.967Z,8.18
2018-04-11T13:14:26.565Z,7.37
2018-04-11T13:16:54.127Z,8.10
2018-04-11T13:19:23.385Z,8.38
2018-04-11T13:21:50.934Z,7.78
2018-04-11T13:24:19.269Z,8.77
2018-04-11T13:26:46.841Z,8.20
2018-04-11T13:29:14.438Z,13.45
2018-04-11T13:31:42.756Z,15.55
2018-04-11T13:34:10.376Z,82.93
2018-04-11T13:36:37.931Z,67.28
2018-04-11T13:39:05.582Z,37.05
2018-04-11T13:41:33.924Z,13.18
2018-04-11T13:44:01.499Z,14.05
2018-04-11T13:46:29.060Z,14.35
2018-04-11T13:48:56.623Z,12.95
2018-04-11T13:51:24.175Z,11.55
2018-04-11T13:53:51.771Z,12.32
2018-04-11T13:56:19.423Z,11.95
2018-04-11T13:58:46.938Z,13.15
2018-04-11T14:01:14.527Z,13.10
2018-04-11T14:03:42.867Z,12.43
2018-04-11T14:06:11.914Z,12.48
2018-04-11T14:08:39.507Z,10.43
2018-04-11T14:11:07.069Z,10.35
2018-04-11T14:13:34.652Z,10.52
2018-04-11T14:16:02.197Z,11.90
2018-04-11T14:18:29.735Z,10.30
2018-04-11T14:20:57.274Z,11.00
2018-04-11T14:23:24.824Z,10.13
2018-04-11T14:25:52.419Z,10.48
2018-04-11T14:28:20.765Z,10.40
2018-04-11T14:30:48.389Z,9.70
2018-04-11T14:33:15.963Z,9.75
2018-04-11T14:35:43.526Z,9.82
2018-04-11T14:38:11.117Z,8.35
2018-04-11T14:40:38.683Z,9.05
2018-04-11T14:43:06.295Z,8.80
2018-04-11T14:45:33.887Z,9.40
2018-04-11T14:48:01.479Z,7.62
2018-04-11T14:50:29.028Z,7.62
2018-04-11T14:52:56.587Z,7.28
2018-04-11T14:55:24.136Z,7.05
2018-04-11T14:57:51.677Z,6.60
2018-04-11T15:00:19.295Z,6.68
2018-04-11T15:02:47.611Z,5.68
2018-04-11T15:05:15.925Z,6.65
2018-04-11T15:07:43.494Z,6.80
2018-04-11T15:10:11.044Z,6.78
2018-04-11T15:12:38.693Z,6.22
2018-04-11T15:15:07.021Z,6.37
2018-04-11T15:17:34.608Z,6.93
2018-04-11T15:20:02.181Z,7.05
2018-04-11T15:22:29.727Z,6.90
2018-04-11T15:24:57.286Z,6.35
2018-04-11T15:27:24.854Z,6.97
2018-04-11T15:29:52.395Z,7.12
2018-04-11T15:32:19.947Z,7.78
2018-04-11T15:34:47.523Z,8.52
2018-04-11T15:37:15.073Z,8.93
2018-04-11T15:39:42.633Z,8.70
2018-04-11T15:42:11.249Z,8.18
2018-04-11T15:44:38.791Z,9.93
2018-04-11T15:47:06.367Z,10.43
2018-04-11T15:49:33.920Z,9.80
2018-04-11T15:52:01.483Z,8.40
2018-04-11T15:54:29.040Z,7.93
2018-04-11T15:56:56.611Z,8.18
2018-04-11T15:59:24.194Z,9.10
2018-04-11T16:01:51.774Z,7.95
2018-04-11T16:04:19.400Z,9.00
2018-04-11T16:06:46.978Z,9.15
2018-04-11T16:09:14.542Z,8.93
2018-04-11T16:11:42.180Z,9.20
2018-04-11T16:14:10.521Z,8.30
2018-04-11T16:16:38.890Z,8.38
2018-04-11T16:19:06.441Z,7.80
2018-04-11T16:21:33.979Z,7.90
2018-04-11T16:24:01.549Z,7.10
2018-04-11T16:26:29.171Z,7.43
2018-04-11T16:28:56.859Z,6.60
2018-04-11T16:31:25.161Z,6.65
2018-04-11T16:33:52.746Z,6.50
2018-04-11T16:36:20.379Z,6.68
2018-04-11T16:38:48.718Z,7.05
2018-04-11T16:41:16.308Z,6.70
2018-04-11T16:43:44.642Z,7.25
2018-04-11T16:46:12.226Z,7.07
2018-04-11T16:48:39.791Z,6.65
2018-04-11T16:51:07.344Z,6.82
2018-04-11T16:53:34.948Z,6.82
2018-04-11T16:56:03.280Z,6.95
2018-04-11T16:58:30.819Z,6.80
2018-04-11T17:00:58.369Z,7.53
2018-04-11T17:03:26.735Z,7.07
2018-04-11T17:05:54.341Z,6.95
2018-04-11T17:08:21.912Z,7.45
2018-04-11T17:10:49.551Z,7.25
2018-04-11T17:13:17.868Z,7.00
2018-04-11T17:15:45.451Z,7.70
2018-04-11T17:18:13.983Z,6.80
2018-04-11T17:20:53.590Z,8.90
2018-04-11T17:23:32.892Z,8.77
2018-04-11T17:26:12.265Z,7.10
2018-04-11T17:28:51.608Z,6.68
2018-04-11T17:31:21.714Z,6.68
2018-04-11T17:33:49.267Z,7.05
2018-04-11T17:36:16.839Z,6.90
2018-04-11T17:38:44.415Z,7.25
2018-04-11T17:41:11.969Z,7.43
2018-04-11T17:43:39.553Z,6.90
2018-04-11T17:46:07.220Z,7.25
2018-04-11T17:48:35.571Z,6.68
2018-04-11T17:51:03.271Z,7.78
2018-04-11T17:53:31.626Z,7.43
2018-04-11T17:55:59.182Z,8.13
2018-04-11T17:58:26.788Z,7.70
2018-04-11T18:00:55.186Z,8.63
2018-04-11T18:03:22.792Z,7.22
2018-04-11T18:05:51.098Z,7.15
2018-04-11T18:08:18.669Z,8.10
2018-04-11T18:10:46.228Z,8.10
2018-04-11T18:13:13.814Z,8.00
2018-04-11T18:15:41.389Z,7.50
2018-04-11T18:18:08.965Z,7.47
2018-04-11T18:20:36.539Z,7.43
2018-04-11T18:23:04.101Z,7.80
2018-04-11T18:25:31.655Z,6.43
2018-04-11T18:27:59.287Z,7.50
2018-04-11T18:30:27.634Z,8.23
2018-04-11T18:32:56.235Z,8.20
2018-04-11T18:35:23.836Z,8.20
2018-04-11T18:37:52.194Z,6.78
2018-04-11T18:40:19.718Z,8.40
2018-04-11T18:42:47.343Z,8.13
2018-04-11T18:45:15.687Z,7.35
2018-04-11T18:47:43.257Z,7.70
2018-04-11T18:50:10.854Z,7.57
2018-04-11T18:52:39.194Z,6.43
2018-04-11T18:55:06.759Z,5.90
2018-04-11T18:57:34.353Z,6.35
2018-04-11T19:00:02.674Z,6.57
2018-04-11T19:02:30.249Z,7.10
2018-04-11T19:04:57.849Z,6.50
2018-04-11T19:07:25.471Z,6.30
2018-04-11T19:09:53.075Z,6.28
2018-04-11T19:12:20.641Z,6.40
2018-04-11T19:14:48.248Z,7.20
2018-04-11T19:17:15.822Z,7.40
2018-04-11T19:19:43.386Z,6.60
2018-04-11T19:22:10.963Z,7.47
2018-04-11T19:24:38.558Z,8.00
2018-04-11T19:27:06.201Z,7.70
2018-04-11T19:29:33.768Z,8.02
2018-04-11T19:32:01.491Z,7.10
2018-04-11T19:34:29.852Z,8.10
2018-04-11T19:36:57.430Z,7.55
2018-04-11T19:39:25.803Z,7.37
2018-04-11T19:41:53.492Z,7.28
2018-04-11T19:44:21.879Z,7.35
2018-04-11T19:46:49.484Z,8.20
2018-04-11T19:49:18.715Z,6.78
2018-04-11T19:51:46.318Z,7.35
2018-04-11T19:54:13.896Z,8.05
2018-04-11T19:56:41.476Z,8.15
2018-04-11T19:59:09.066Z,9.07
2018-04-11T20:01:36.664Z,9.05
2018-04-11T20:04:06.036Z,9.80
2018-04-11T20:06:33.599Z,8.38
2018-04-11T20:09:01.170Z,9.80
2018-04-11T20:11:28.731Z,9.40
2018-04-11T20:13:56.301Z,9.95
2018-04-11T20:16:24.678Z,9.60
2018-04-11T20:18:52.260Z,10.60
2018-04-11T20:21:20.637Z,9.43
2018-04-11T20:23:48.269Z,10.25
2018-04-11T20:26:15.823Z,9.98
2018-04-11T20:28:43.382Z,10.00
2018-04-11T20:31:10.934Z,10.95
2018-04-11T20:33:38.514Z,12.98
2018-04-11T20:36:06.129Z,11.57
2018-04-11T20:38:33.688Z,12.93
2018-04-11T20:41:01.272Z,12.85
2018-04-11T20:43:29.623Z,12.70
2018-04-11T20:45:57.183Z,13.25
2018-04-11T20:48:24.730Z,14.50
2018-04-11T20:50:52.318Z,11.95
2018-04-11T20:53:19.876Z,11.73
2018-04-11T20:55:47.454Z,13.43
2018-04-11T20:58:15.002Z,13.60
2018-04-11T21:00:43.327Z,13.65
2018-04-11T21:03:11.666Z,13.25
2018-04-11T21:05:39.233Z,14.40
2018-04-11T21:08:06.801Z,16.35
2018-04-11T21:10:34.366Z,16.00
2018-04-11T21:13:01.947Z,14.90
2018-04-11T21:15:30.279Z,14.38
2018-04-11T21:17:57.829Z,15.30
2018-04-11T21:20:25.453Z,15.02
2018-04-11T21:22:53.009Z,12.60
2018-04-11T21:25:20.596Z,13.48
2018-04-11T21:27:48.931Z,13.65
2018-04-11T21:30:16.515Z,12.80
2018-04-11T21:32:44.100Z,13.85
2018-04-11T21:35:12.465Z,14.00
2018-04-11T21:37:40.008Z,13.60
2018-04-11T21:40:07.565Z,14.70
2018-04-11T21:42:35.135Z,13.07
2018-04-11T21:45:02.701Z,12.70
2018-04-11T21:47:30.267Z,14.38
2018-04-11T21:49:57.823Z,12.18
2018-04-11T21:52:25.399Z,13.20
2018-04-11T21:54:52.963Z,13.62
2018-04-11T21:57:20.541Z,11.27
2018-04-11T21:59:48.103Z,12.23
2018-04-11T22:02:15.643Z,12.25
2018-04-11T22:04:43.200Z,12.02
2018-04-11T22:07:10.793Z,11.05
2018-04-11T22:09:38.349Z,11.27
2018-04-11T22:12:06.671Z,11.95
2018-04-11T22:14:35.020Z,10.80
2018-04-11T22:17:02.580Z,11.32
2018-04-11T22:19:30.136Z,11.12
2018-04-11T22:21:57.746Z,11.48
2018-04-11T22:24:26.069Z,11.07
2018-04-11T22:26:53.697Z,11.88
2018-04-11T22:29:22.046Z,12.27
2018-04-11T22:31:49.613Z,11.98
2018-04-11T22:34:17.171Z,12.88
2018-04-11T22:36:44.728Z,12.25
2018-04-11T22:39:12.328Z,12.70
2018-04-11T22:41:40.666Z,11.40
2018-04-11T22:44:08.244Z,11.95
2018-04-11T22:46:35.829Z,12.10
2018-04-11T22:49:03.398Z,12.85
2018-04-11T22:51:31.013Z,12.25
2018-04-11T22:53:58.629Z,12.80
2018-04-11T22:56:26.235Z,13.15
2018-04-11T22:58:53.797Z,13.93
2018-04-11T23:01:21.358Z,14.02
2018-04-11T23:03:48.939Z,13.50
2018-04-11T23:06:16.503Z,13.80
2018-04-11T23:08:44.056Z,11.65
2018-04-11T23:11:11.622Z,12.48
2018-04-11T23:13:39.235Z,12.43
2018-04-11T23:16:06.890Z,11.02
2018-04-11T23:18:34.530Z,11.80
2018-04-11T23:21:02.088Z,13.60
2018-04-11T23:23:29.675Z,14.05
2018-04-11T23:25:57.245Z,13.43
2018-04-11T23:28:24.840Z,11.85
2018-04-11T23:30:53.211Z,12.02
2018-04-11T23:33:20.767Z,13.15
2018-04-11T23:35:48.357Z,13.18
2018-04-11T23:38:16.731Z,14.57
2018-04-11T23:40:45.095Z,13.38
2018-04-11T23:43:12.665Z,12.90
2018-04-11T23:45:40.219Z,12.23
2018-04-11T23:48:07.785Z,15.30
2018-04-11T23:50:35.366Z,13.57
2018-04-11T23:53:02.969Z,13.38
2018-04-11T23:55:30.737Z,13.93
2018-04-11T23:57:58.329Z,14.60
